sensor_id;sensor_type;location;lat;lon;timestamp;P1;durP1;ratioP1;P2;durP2;ratioP2
24826;SDS011;12910;57.690;11.974;2022-08-03T00:00:58;10.47;;;9.30;;
24826;SDS011;12910;57.690;11.974;2022-08-03T00:03:23;15.73;;;9.50;;
24826;SDS011;12910;57.690;11.974;2022-08-03T00:05:49;11.87;;;10.70;;
24826;SDS011;12910;57.690;11.974;2022-08-03T00:08:14;12.60;;;9.27;;
24826;SDS011;12910;57.690;11.974;2022-08-03T00:10:40;10.80;;;9.50;;
24826;SDS011;12910;57.690;11.974;2022-08-03T00:13:05;14.27;;;10.50;;
24826;SDS011;12910;57.690;11.974;2022-08-03T00:15:31;11.60;;;10.13;;
24826;SDS011;12910;57.690;11.974;2022-08-03T00:17:56;9.23;;;8.33;;
24826;SDS011;12910;57.690;11.974;2022-08-03T00:20:22;16.53;;;10.27;;
24826;SDS011;12910;57.690;11.974;2022-08-03T00:22:48;11.07;;;9.03;;
24826;SDS011;12910;57.690;11.974;2022-08-03T00:25:14;8.83;;;8.13;;
24826;SDS011;12910;57.690;11.974;2022-08-03T00:27:39;7.80;;;7.17;;
24826;SDS011;12910;57.690;11.974;2022-08-03T00:30:05;9.03;;;8.13;;
24826;SDS011;12910;57.690;11.974;2022-08-03T00:32:31;10.97;;;7.13;;
24826;SDS011;12910;57.690;11.974;2022-08-03T00:34:56;9.37;;;7.27;;
24826;SDS011;12910;57.690;11.974;2022-08-03T00:37:22;7.63;;;6.93;;
24826;SDS011;12910;57.690;11.974;2022-08-03T00:39:47;7.73;;;7.23;;
24826;SDS011;12910;57.690;11.974;2022-08-03T00:42:12;7.73;;;6.93;;
24826;SDS011;12910;57.690;11.974;2022-08-03T00:44:39;8.87;;;8.10;;
24826;SDS011;12910;57.690;11.974;2022-08-03T00:47:05;17.37;;;8.43;;
24826;SDS011;12910;57.690;11.974;2022-08-03T00:49:31;9.87;;;8.77;;
24826;SDS011;12910;57.690;11.974;2022-08-03T00:51:56;13.30;;;9.50;;
24826;SDS011;12910;57.690;11.974;2022-08-03T00:54:24;10.90;;;9.53;;
24826;SDS011;12910;57.690;11.974;2022-08-03T00:56:50;9.37;;;8.17;;
24826;SDS011;12910;57.690;11.974;2022-08-03T00:59:16;10.80;;;9.10;;
24826;SDS011;12910;57.690;11.974;2022-08-03T01:01:42;10.53;;;9.40;;
24826;SDS011;12910;57.690;11.974;2022-08-03T01:04:08;9.60;;;8.63;;
24826;SDS011;12910;57.690;11.974;2022-08-03T01:06:51;11.43;;;8.80;;
24826;SDS011;12910;57.690;11.974;2022-08-03T01:09:26;10.03;;;9.17;;
24826;SDS011;12910;57.690;11.974;2022-08-03T01:15:18;10.90;;;9.97;;
24826;SDS011;12910;57.690;11.974;2022-08-03T01:17:56;10.80;;;9.40;;
24826;SDS011;12910;57.690;11.974;2022-08-03T01:20:26;9.53;;;8.57;;
24826;SDS011;12910;57.690;11.974;2022-08-03T01:31:10;12.77;;;8.40;;
24826;SDS011;12910;57.690;11.974;2022-08-03T01:33:38;15.90;;;8.27;;
24826;SDS011;12910;57.690;11.974;2022-08-03T01:36:06;9.50;;;8.70;;
24826;SDS011;12910;57.690;11.974;2022-08-03T01:38:40;16.53;;;8.93;;
24826;SDS011;12910;57.690;11.974;2022-08-03T01:41:11;11.23;;;8.30;;
24826;SDS011;12910;57.690;11.974;2022-08-03T01:43:44;9.87;;;8.33;;
24826;SDS011;12910;57.690;11.974;2022-08-03T01:46:14;9.60;;;8.73;;
24826;SDS011;12910;57.690;11.974;2022-08-03T01:48:41;9.50;;;8.50;;
24826;SDS011;12910;57.690;11.974;2022-08-03T01:51:08;8.07;;;7.37;;
24826;SDS011;12910;57.690;11.974;2022-08-03T01:53:36;11.57;;;8.83;;
24826;SDS011;12910;57.690;11.974;2022-08-03T01:56:06;12.60;;;7.63;;
24826;SDS011;12910;57.690;11.974;2022-08-03T01:58:34;7.97;;;7.23;;
24826;SDS011;12910;57.690;11.974;2022-08-03T02:01:01;8.50;;;7.57;;
24826;SDS011;12910;57.690;11.974;2022-08-03T02:03:29;12.57;;;7.33;;
24826;SDS011;12910;57.690;11.974;2022-08-03T02:05:58;7.17;;;6.50;;
24826;SDS011;12910;57.690;11.974;2022-08-03T02:08:25;16.40;;;7.70;;
24826;SDS011;12910;57.690;11.974;2022-08-03T02:10:54;12.20;;;6.30;;
24826;SDS011;12910;57.690;11.974;2022-08-03T02:13:23;15.23;;;7.10;;
24826;SDS011;12910;57.690;11.974;2022-08-03T02:15:50;6.37;;;5.87;;
24826;SDS011;12910;57.690;11.974;2022-08-03T02:18:17;10.17;;;7.77;;
24826;SDS011;12910;57.690;11.974;2022-08-03T02:20:45;9.40;;;7.20;;
24826;SDS011;12910;57.690;11.974;2022-08-03T02:23:11;8.80;;;7.83;;
24826;SDS011;12910;57.690;11.974;2022-08-03T02:25:40;9.50;;;8.33;;
24826;SDS011;12910;57.690;11.974;2022-08-03T02:28:10;11.23;;;8.03;;
24826;SDS011;12910;57.690;11.974;2022-08-03T02:30:40;15.47;;;8.43;;
24826;SDS011;12910;57.690;11.974;2022-08-03T02:33:31;13.00;;;9.53;;
24826;SDS011;12910;57.690;11.974;2022-08-03T02:35:57;10.83;;;8.23;;
24826;SDS011;12910;57.690;11.974;2022-08-03T02:38:27;11.97;;;9.60;;
24826;SDS011;12910;57.690;11.974;2022-08-03T02:40:57;21.97;;;10.27;;
24826;SDS011;12910;57.690;11.974;2022-08-03T02:43:24;13.77;;;10.27;;
24826;SDS011;12910;57.690;11.974;2022-08-03T02:45:51;23.43;;;11.63;;
24826;SDS011;12910;57.690;11.974;2022-08-03T02:48:22;11.90;;;10.03;;
24826;SDS011;12910;57.690;11.974;2022-08-03T02:50:52;15.90;;;10.63;;
24826;SDS011;12910;57.690;11.974;2022-08-03T02:53:18;15.60;;;10.60;;
24826;SDS011;12910;57.690;11.974;2022-08-03T02:55:46;25.70;;;13.40;;
24826;SDS011;12910;57.690;11.974;2022-08-03T02:58:13;21.23;;;11.87;;
24826;SDS011;12910;57.690;11.974;2022-08-03T03:00:43;21.27;;;11.40;;
24826;SDS011;12910;57.690;11.974;2022-08-03T03:03:09;25.13;;;11.43;;
24826;SDS011;12910;57.690;11.974;2022-08-03T03:05:35;25.20;;;12.37;;
24826;SDS011;12910;57.690;11.974;2022-08-03T03:08:02;34.53;;;12.47;;
24826;SDS011;12910;57.690;11.974;2022-08-03T03:10:27;25.23;;;12.90;;
24826;SDS011;12910;57.690;11.974;2022-08-03T03:12:57;34.33;;;13.03;;
24826;SDS011;12910;57.690;11.974;2022-08-03T03:15:23;24.53;;;12.57;;
24826;SDS011;12910;57.690;11.974;2022-08-03T03:17:50;28.83;;;13.47;;
24826;SDS011;12910;57.690;11.974;2022-08-03T03:20:17;27.97;;;14.43;;
24826;SDS011;12910;57.690;11.974;2022-08-03T03:22:44;32.60;;;15.00;;
24826;SDS011;12910;57.690;11.974;2022-08-03T03:25:12;23.20;;;13.87;;
24826;SDS011;12910;57.690;11.974;2022-08-03T03:27:37;28.30;;;13.87;;
24826;SDS011;12910;57.690;11.974;2022-08-03T03:30:03;50.07;;;16.13;;
24826;SDS011;12910;57.690;11.974;2022-08-03T03:32:30;25.73;;;14.40;;
24826;SDS011;12910;57.690;11.974;2022-08-03T03:34:56;38.53;;;17.20;;
24826;SDS011;12910;57.690;11.974;2022-08-03T03:37:23;24.40;;;16.97;;
24826;SDS011;12910;57.690;11.974;2022-08-03T03:39:50;32.53;;;14.80;;
24826;SDS011;12910;57.690;11.974;2022-08-03T03:42:17;24.17;;;13.77;;
24826;SDS011;12910;57.690;11.974;2022-08-03T03:44:42;22.47;;;12.53;;
24826;SDS011;12910;57.690;11.974;2022-08-03T03:47:08;11.77;;;10.50;;
24826;SDS011;12910;57.690;11.974;2022-08-03T03:49:33;14.33;;;10.83;;
24826;SDS011;12910;57.690;11.974;2022-08-03T03:52:00;11.50;;;10.23;;
24826;SDS011;12910;57.690;11.974;2022-08-03T03:54:25;18.70;;;10.43;;
24826;SDS011;12910;57.690;11.974;2022-08-03T03:56:51;10.73;;;9.30;;
24826;SDS011;12910;57.690;11.974;2022-08-03T03:59:16;9.70;;;8.80;;
24826;SDS011;12910;57.690;11.974;2022-08-03T04:01:42;9.63;;;8.80;;
24826;SDS011;12910;57.690;11.974;2022-08-03T04:04:07;9.30;;;8.57;;
24826;SDS011;12910;57.690;11.974;2022-08-03T04:06:51;7.57;;;7.10;;
24826;SDS011;12910;57.690;11.974;2022-08-03T04:09:35;15.73;;;8.40;;
24826;SDS011;12910;57.690;11.974;2022-08-03T04:12:22;9.00;;;8.10;;
24826;SDS011;12910;57.690;11.974;2022-08-03T04:14:50;12.30;;;8.97;;
24826;SDS011;12910;57.690;11.974;2022-08-03T04:17:20;11.10;;;8.97;;
24826;SDS011;12910;57.690;11.974;2022-08-03T04:19:51;10.33;;;8.27;;
24826;SDS011;12910;57.690;11.974;2022-08-03T04:22:19;8.43;;;7.50;;
24826;SDS011;12910;57.690;11.974;2022-08-03T04:24:50;8.83;;;7.90;;
24826;SDS011;12910;57.690;11.974;2022-08-03T04:27:20;12.37;;;10.07;;
24826;SDS011;12910;57.690;11.974;2022-08-03T04:29:51;14.60;;;11.27;;
24826;SDS011;12910;57.690;11.974;2022-08-03T04:32:18;19.40;;;12.47;;
24826;SDS011;12910;57.690;11.974;2022-08-03T04:34:47;20.10;;;14.27;;
24826;SDS011;12910;57.690;11.974;2022-08-03T04:37:24;26.70;;;14.10;;
24826;SDS011;12910;57.690;11.974;2022-08-03T04:39:57;25.00;;;14.60;;
24826;SDS011;12910;57.690;11.974;2022-08-03T04:42:25;21.50;;;14.13;;
24826;SDS011;12910;57.690;11.974;2022-08-03T04:44:52;18.13;;;12.27;;
24826;SDS011;12910;57.690;11.974;2022-08-03T04:47:20;24.90;;;14.57;;
24826;SDS011;12910;57.690;11.974;2022-08-03T04:49:46;19.93;;;13.93;;
24826;SDS011;12910;57.690;11.974;2022-08-03T04:52:12;19.10;;;13.67;;
24826;SDS011;12910;57.690;11.974;2022-08-03T04:54:38;20.40;;;13.67;;
24826;SDS011;12910;57.690;11.974;2022-08-03T04:57:04;17.80;;;13.50;;
24826;SDS011;12910;57.690;11.974;2022-08-03T04:59:29;17.33;;;13.43;;
24826;SDS011;12910;57.690;11.974;2022-08-03T05:01:55;28.87;;;14.17;;
24826;SDS011;12910;57.690;11.974;2022-08-03T05:04:20;21.10;;;13.13;;
24826;SDS011;12910;57.690;11.974;2022-08-03T05:06:47;25.30;;;14.27;;
24826;SDS011;12910;57.690;11.974;2022-08-03T05:09:12;18.37;;;15.30;;
24826;SDS011;12910;57.690;11.974;2022-08-03T05:11:37;26.57;;;14.47;;
24826;SDS011;12910;57.690;11.974;2022-08-03T05:14:03;38.10;;;14.57;;
24826;SDS011;12910;57.690;11.974;2022-08-03T05:16:28;21.50;;;13.80;;
24826;SDS011;12910;57.690;11.974;2022-08-03T05:18:53;32.30;;;14.33;;
24826;SDS011;12910;57.690;11.974;2022-08-03T05:21:19;23.23;;;14.00;;
24826;SDS011;12910;57.690;11.974;2022-08-03T05:23:44;21.33;;;13.03;;
24826;SDS011;12910;57.690;11.974;2022-08-03T05:26:09;25.23;;;12.93;;
24826;SDS011;12910;57.690;11.974;2022-08-03T05:28:38;24.37;;;12.50;;
24826;SDS011;12910;57.690;11.974;2022-08-03T05:31:03;25.80;;;13.47;;
24826;SDS011;12910;57.690;11.974;2022-08-03T05:33:29;25.60;;;11.97;;
24826;SDS011;12910;57.690;11.974;2022-08-03T05:35:54;14.93;;;12.50;;
24826;SDS011;12910;57.690;11.974;2022-08-03T05:38:19;18.63;;;11.77;;
24826;SDS011;12910;57.690;11.974;2022-08-03T05:40:45;20.93;;;11.33;;
24826;SDS011;12910;57.690;11.974;2022-08-03T05:43:10;20.60;;;13.40;;
24826;SDS011;12910;57.690;11.974;2022-08-03T05:45:36;26.53;;;14.37;;
24826;SDS011;12910;57.690;11.974;2022-08-03T05:48:02;15.03;;;10.30;;
24826;SDS011;12910;57.690;11.974;2022-08-03T05:50:29;16.60;;;11.93;;
24826;SDS011;12910;57.690;11.974;2022-08-03T05:52:55;14.67;;;11.57;;
24826;SDS011;12910;57.690;11.974;2022-08-03T05:55:23;25.13;;;11.93;;
24826;SDS011;12910;57.690;11.974;2022-08-03T05:57:49;12.17;;;10.97;;
24826;SDS011;12910;57.690;11.974;2022-08-03T06:00:14;27.47;;;10.97;;
24826;SDS011;12910;57.690;11.974;2022-08-03T06:02:41;17.67;;;11.33;;
24826;SDS011;12910;57.690;11.974;2022-08-03T06:05:08;27.80;;;12.60;;
24826;SDS011;12910;57.690;11.974;2022-08-03T06:07:34;17.90;;;10.53;;
24826;SDS011;12910;57.690;11.974;2022-08-03T06:09:59;10.40;;;9.40;;
24826;SDS011;12910;57.690;11.974;2022-08-03T06:12:28;21.27;;;12.73;;
24826;SDS011;12910;57.690;11.974;2022-08-03T06:14:54;10.77;;;9.87;;
24826;SDS011;12910;57.690;11.974;2022-08-03T06:17:20;21.93;;;12.00;;
24826;SDS011;12910;57.690;11.974;2022-08-03T06:19:45;14.37;;;10.63;;
24826;SDS011;12910;57.690;11.974;2022-08-03T06:22:11;22.30;;;9.10;;
24826;SDS011;12910;57.690;11.974;2022-08-03T06:24:36;21.10;;;9.53;;
24826;SDS011;12910;57.690;11.974;2022-08-03T06:27:01;11.23;;;9.07;;
24826;SDS011;12910;57.690;11.974;2022-08-03T06:29:27;17.73;;;9.17;;
24826;SDS011;12910;57.690;11.974;2022-08-03T06:31:52;8.70;;;7.97;;
24826;SDS011;12910;57.690;11.974;2022-08-03T06:34:18;9.70;;;8.67;;
24826;SDS011;12910;57.690;11.974;2022-08-03T06:36:43;16.00;;;8.57;;
24826;SDS011;12910;57.690;11.974;2022-08-03T06:39:08;17.80;;;7.87;;
24826;SDS011;12910;57.690;11.974;2022-08-03T06:41:34;16.60;;;7.90;;
24826;SDS011;12910;57.690;11.974;2022-08-03T06:43:59;14.20;;;7.47;;
24826;SDS011;12910;57.690;11.974;2022-08-03T06:46:25;9.77;;;6.90;;
24826;SDS011;12910;57.690;11.974;2022-08-03T06:48:50;9.63;;;7.80;;
24826;SDS011;12910;57.690;11.974;2022-08-03T06:51:16;13.20;;;6.17;;
24826;SDS011;12910;57.690;11.974;2022-08-03T06:53:41;11.37;;;7.57;;
24826;SDS011;12910;57.690;11.974;2022-08-03T06:56:07;8.50;;;6.60;;
24826;SDS011;12910;57.690;11.974;2022-08-03T06:58:32;18.77;;;7.47;;
24826;SDS011;12910;57.690;11.974;2022-08-03T07:00:59;12.60;;;6.60;;
24826;SDS011;12910;57.690;11.974;2022-08-03T07:03:24;7.83;;;5.70;;
24826;SDS011;12910;57.690;11.974;2022-08-03T07:05:49;9.83;;;5.87;;
24826;SDS011;12910;57.690;11.974;2022-08-03T07:08:15;7.07;;;6.57;;
24826;SDS011;12910;57.690;11.974;2022-08-03T07:10:41;18.80;;;7.33;;
24826;SDS011;12910;57.690;11.974;2022-08-03T07:13:06;13.43;;;6.57;;
24826;SDS011;12910;57.690;11.974;2022-08-03T07:15:32;9.33;;;5.00;;
24826;SDS011;12910;57.690;11.974;2022-08-03T07:17:59;11.47;;;5.50;;
24826;SDS011;12910;57.690;11.974;2022-08-03T07:20:24;5.37;;;4.87;;
24826;SDS011;12910;57.690;11.974;2022-08-03T07:22:49;13.10;;;5.97;;
24826;SDS011;12910;57.690;11.974;2022-08-03T07:25:15;13.97;;;5.30;;
24826;SDS011;12910;57.690;11.974;2022-08-03T07:27:44;10.47;;;5.23;;
24826;SDS011;12910;57.690;11.974;2022-08-03T07:30:10;5.63;;;5.13;;
24826;SDS011;12910;57.690;11.974;2022-08-03T07:32:36;4.83;;;4.40;;
24826;SDS011;12910;57.690;11.974;2022-08-03T07:35:03;9.23;;;4.97;;
24826;SDS011;12910;57.690;11.974;2022-08-03T07:37:30;7.53;;;4.70;;
24826;SDS011;12910;57.690;11.974;2022-08-03T07:39:56;9.37;;;5.30;;
24826;SDS011;12910;57.690;11.974;2022-08-03T07:42:22;5.93;;;5.13;;
24826;SDS011;12910;57.690;11.974;2022-08-03T07:44:48;11.27;;;4.93;;
24826;SDS011;12910;57.690;11.974;2022-08-03T07:47:17;10.43;;;5.73;;
24826;SDS011;12910;57.690;11.974;2022-08-03T07:49:43;8.03;;;5.27;;
24826;SDS011;12910;57.690;11.974;2022-08-03T07:52:08;8.17;;;5.50;;
24826;SDS011;12910;57.690;11.974;2022-08-03T07:54:52;5.20;;;4.77;;
24826;SDS011;12910;57.690;11.974;2022-08-03T07:57:18;16.33;;;6.33;;
24826;SDS011;12910;57.690;11.974;2022-08-03T07:59:44;11.20;;;5.50;;
24826;SDS011;12910;57.690;11.974;2022-08-03T08:02:10;8.97;;;5.97;;
24826;SDS011;12910;57.690;11.974;2022-08-03T08:04:35;6.60;;;6.00;;
24826;SDS011;12910;57.690;11.974;2022-08-03T08:07:01;11.13;;;5.80;;
24826;SDS011;12910;57.690;11.974;2022-08-03T08:09:26;8.00;;;5.77;;
24826;SDS011;12910;57.690;11.974;2022-08-03T08:11:51;8.53;;;5.93;;
24826;SDS011;12910;57.690;11.974;2022-08-03T08:14:17;11.40;;;5.03;;
24826;SDS011;12910;57.690;11.974;2022-08-03T08:16:42;13.30;;;5.77;;
24826;SDS011;12910;57.690;11.974;2022-08-03T08:19:07;8.43;;;4.83;;
24826;SDS011;12910;57.690;11.974;2022-08-03T08:21:33;11.13;;;5.17;;
24826;SDS011;12910;57.690;11.974;2022-08-03T08:23:58;6.30;;;4.63;;
24826;SDS011;12910;57.690;11.974;2022-08-03T08:26:24;12.90;;;6.97;;
24826;SDS011;12910;57.690;11.974;2022-08-03T08:28:49;5.73;;;4.23;;
24826;SDS011;12910;57.690;11.974;2022-08-03T08:31:16;6.27;;;4.27;;
24826;SDS011;12910;57.690;11.974;2022-08-03T08:33:42;4.90;;;4.30;;
24826;SDS011;12910;57.690;11.974;2022-08-03T08:36:07;5.17;;;4.67;;
24826;SDS011;12910;57.690;11.974;2022-08-03T08:38:33;8.03;;;5.00;;
24826;SDS011;12910;57.690;11.974;2022-08-03T08:40:59;7.20;;;4.47;;
24826;SDS011;12910;57.690;11.974;2022-08-03T08:43:25;5.60;;;4.32;;
24826;SDS011;12910;57.690;11.974;2022-08-03T08:45:51;7.93;;;4.23;;
24826;SDS011;12910;57.690;11.974;2022-08-03T08:48:21;4.73;;;4.23;;
24826;SDS011;12910;57.690;11.974;2022-08-03T08:50:51;4.87;;;4.23;;
24826;SDS011;12910;57.690;11.974;2022-08-03T08:53:18;4.80;;;4.40;;
24826;SDS011;12910;57.690;11.974;2022-08-03T08:55:45;5.43;;;3.93;;
24826;SDS011;12910;57.690;11.974;2022-08-03T08:58:11;5.30;;;4.60;;
24826;SDS011;12910;57.690;11.974;2022-08-03T09:00:38;4.50;;;3.80;;
24826;SDS011;12910;57.690;11.974;2022-08-03T09:03:03;5.00;;;3.72;;
24826;SDS011;12910;57.690;11.974;2022-08-03T09:05:29;5.22;;;3.65;;
24826;SDS011;12910;57.690;11.974;2022-08-03T09:07:56;8.00;;;4.85;;
24826;SDS011;12910;57.690;11.974;2022-08-03T09:10:22;5.07;;;3.35;;
24826;SDS011;12910;57.690;11.974;2022-08-03T09:12:49;3.78;;;3.22;;
24826;SDS011;12910;57.690;11.974;2022-08-03T09:17:41;4.30;;;3.58;;
24826;SDS011;12910;57.690;11.974;2022-08-03T09:20:07;6.60;;;3.53;;
24826;SDS011;12910;57.690;11.974;2022-08-03T09:22:33;7.63;;;3.78;;
24826;SDS011;12910;57.690;11.974;2022-08-03T09:25:00;4.93;;;3.97;;
24826;SDS011;12910;57.690;11.974;2022-08-03T09:27:40;4.35;;;4.05;;
24826;SDS011;12910;57.690;11.974;2022-08-03T09:30:11;5.38;;;4.15;;
24826;SDS011;12910;57.690;11.974;2022-08-03T09:32:41;4.22;;;3.78;;
24826;SDS011;12910;57.690;11.974;2022-08-03T09:35:09;4.88;;;4.07;;
24826;SDS011;12910;57.690;11.974;2022-08-03T09:37:35;4.60;;;3.25;;
24826;SDS011;12910;57.690;11.974;2022-08-03T09:40:01;4.13;;;3.50;;
24826;SDS011;12910;57.690;11.974;2022-08-03T09:42:26;11.60;;;3.88;;
24826;SDS011;12910;57.690;11.974;2022-08-03T09:44:52;6.20;;;3.28;;
24826;SDS011;12910;57.690;11.974;2022-08-03T09:47:27;4.25;;;3.35;;
24826;SDS011;12910;57.690;11.974;2022-08-03T09:50:03;4.97;;;3.90;;
24826;SDS011;12910;57.690;11.974;2022-08-03T09:52:34;7.10;;;3.95;;
24826;SDS011;12910;57.690;11.974;2022-08-03T09:55:01;4.57;;;3.25;;
24826;SDS011;12910;57.690;11.974;2022-08-03T09:57:33;5.65;;;4.55;;
24826;SDS011;12910;57.690;11.974;2022-08-03T10:00:08;8.63;;;4.35;;
24826;SDS011;12910;57.690;11.974;2022-08-03T10:02:36;9.50;;;4.07;;
24826;SDS011;12910;57.690;11.974;2022-08-03T10:05:03;5.03;;;3.85;;
24826;SDS011;12910;57.690;11.974;2022-08-03T10:07:29;7.05;;;4.15;;
24826;SDS011;12910;57.690;11.974;2022-08-03T10:09:58;5.13;;;4.10;;
24826;SDS011;12910;57.690;11.974;2022-08-03T10:12:25;7.78;;;3.42;;
24826;SDS011;12910;57.690;11.974;2022-08-03T10:14:51;4.28;;;3.88;;
24826;SDS011;12910;57.690;11.974;2022-08-03T10:17:18;4.53;;;4.13;;
24826;SDS011;12910;57.690;11.974;2022-08-03T10:19:44;9.35;;;4.25;;
24826;SDS011;12910;57.690;11.974;2022-08-03T10:22:21;7.38;;;4.75;;
24826;SDS011;12910;57.690;11.974;2022-08-03T10:27:33;5.05;;;4.55;;
24826;SDS011;12910;57.690;11.974;2022-08-03T10:30:02;6.22;;;4.30;;
24826;SDS011;12910;57.690;11.974;2022-08-03T10:32:32;6.88;;;4.72;;
24826;SDS011;12910;57.690;11.974;2022-08-03T10:35:20;5.85;;;5.43;;
24826;SDS011;12910;57.690;11.974;2022-08-03T10:40:20;5.60;;;5.15;;
24826;SDS011;12910;57.690;11.974;2022-08-03T10:42:47;8.45;;;5.25;;
24826;SDS011;12910;57.690;11.974;2022-08-03T10:45:25;5.85;;;5.45;;
24826;SDS011;12910;57.690;11.974;2022-08-03T10:47:52;6.70;;;6.10;;
24826;SDS011;12910;57.690;11.974;2022-08-03T10:50:21;6.55;;;5.90;;
24826;SDS011;12910;57.690;11.974;2022-08-03T10:52:59;8.30;;;6.45;;
24826;SDS011;12910;57.690;11.974;2022-08-03T10:55:34;5.60;;;4.95;;
24826;SDS011;12910;57.690;11.974;2022-08-03T11:01:05;9.00;;;8.15;;
24826;SDS011;12910;57.690;11.974;2022-08-03T11:08:47;7.03;;;6.43;;
24826;SDS011;12910;57.690;11.974;2022-08-03T11:14:00;10.15;;;6.38;;
24826;SDS011;12910;57.690;11.974;2022-08-03T11:16:32;8.35;;;7.43;;
24826;SDS011;12910;57.690;11.974;2022-08-03T11:19:08;11.38;;;8.50;;
24826;SDS011;12910;57.690;11.974;2022-08-03T11:27:21;7.57;;;6.95;;
24826;SDS011;12910;57.690;11.974;2022-08-03T11:40:36;10.57;;;6.35;;
24826;SDS011;12910;57.690;11.974;2022-08-03T11:43:06;7.43;;;6.57;;
24826;SDS011;12910;57.690;11.974;2022-08-03T11:45:34;6.63;;;6.15;;
24826;SDS011;12910;57.690;11.974;2022-08-03T11:48:14;6.28;;;5.43;;
24826;SDS011;12910;57.690;11.974;2022-08-03T11:50:41;6.68;;;5.60;;
24826;SDS011;12910;57.690;11.974;2022-08-03T11:53:12;12.75;;;7.03;;
24826;SDS011;12910;57.690;11.974;2022-08-03T11:55:40;7.63;;;6.60;;
24826;SDS011;12910;57.690;11.974;2022-08-03T11:58:13;11.55;;;5.55;;
24826;SDS011;12910;57.690;11.974;2022-08-03T12:00:43;14.18;;;6.25;;
24826;SDS011;12910;57.690;11.974;2022-08-03T12:03:10;5.43;;;4.80;;
24826;SDS011;12910;57.690;11.974;2022-08-03T12:05:42;6.03;;;5.53;;
24826;SDS011;12910;57.690;11.974;2022-08-03T12:08:11;10.13;;;4.97;;
24826;SDS011;12910;57.690;11.974;2022-08-03T12:10:38;8.73;;;5.45;;
24826;SDS011;12910;57.690;11.974;2022-08-03T12:13:09;5.25;;;4.75;;
24826;SDS011;12910;57.690;11.974;2022-08-03T12:15:35;5.50;;;5.00;;
24826;SDS011;12910;57.690;11.974;2022-08-03T12:18:02;11.05;;;5.10;;
24826;SDS011;12910;57.690;11.974;2022-08-03T12:20:29;6.68;;;5.05;;
24826;SDS011;12910;57.690;11.974;2022-08-03T12:23:03;6.57;;;4.40;;
24826;SDS011;12910;57.690;11.974;2022-08-03T12:25:30;5.40;;;4.47;;
24826;SDS011;12910;57.690;11.974;2022-08-03T12:28:05;4.82;;;4.43;;
24826;SDS011;12910;57.690;11.974;2022-08-03T12:30:33;9.82;;;4.13;;
24826;SDS011;12910;57.690;11.974;2022-08-03T12:32:58;12.90;;;4.45;;
24826;SDS011;12910;57.690;11.974;2022-08-03T12:35:35;7.70;;;4.50;;
24826;SDS011;12910;57.690;11.974;2022-08-03T12:38:00;10.30;;;5.35;;
24826;SDS011;12910;57.690;11.974;2022-08-03T12:40:27;5.88;;;4.53;;
24826;SDS011;12910;57.690;11.974;2022-08-03T12:42:52;9.20;;;4.68;;
24826;SDS011;12910;57.690;11.974;2022-08-03T12:45:18;10.27;;;4.18;;
24826;SDS011;12910;57.690;11.974;2022-08-03T12:50:23;9.52;;;4.35;;
24826;SDS011;12910;57.690;11.974;2022-08-03T12:52:58;4.47;;;3.53;;
24826;SDS011;12910;57.690;11.974;2022-08-03T12:55:25;10.05;;;4.22;;
24826;SDS011;12910;57.690;11.974;2022-08-03T12:58:04;4.47;;;4.07;;
24826;SDS011;12910;57.690;11.974;2022-08-03T13:00:31;6.18;;;3.55;;
24826;SDS011;12910;57.690;11.974;2022-08-03T13:03:01;11.50;;;4.90;;
24826;SDS011;12910;57.690;11.974;2022-08-03T13:05:30;7.63;;;3.47;;
24826;SDS011;12910;57.690;11.974;2022-08-03T13:07:56;8.15;;;3.65;;
24826;SDS011;12910;57.690;11.974;2022-08-03T13:10:28;7.60;;;4.30;;
24826;SDS011;12910;57.690;11.974;2022-08-03T13:12:55;4.28;;;3.88;;
24826;SDS011;12910;57.690;11.974;2022-08-03T13:15:25;4.72;;;4.32;;
24826;SDS011;12910;57.690;11.974;2022-08-03T13:17:52;9.95;;;4.28;;
24826;SDS011;12910;57.690;11.974;2022-08-03T13:20:19;6.75;;;3.75;;
24826;SDS011;12910;57.690;11.974;2022-08-03T13:22:47;4.97;;;3.08;;
24826;SDS011;12910;57.690;11.974;2022-08-03T13:25:13;6.57;;;3.55;;
24826;SDS011;12910;57.690;11.974;2022-08-03T13:27:39;9.32;;;3.95;;
24826;SDS011;12910;57.690;11.974;2022-08-03T13:30:05;7.70;;;5.03;;
24826;SDS011;12910;57.690;11.974;2022-08-03T13:32:32;10.75;;;4.40;;
24826;SDS011;12910;57.690;11.974;2022-08-03T13:34:57;7.45;;;3.78;;
24826;SDS011;12910;57.690;11.974;2022-08-03T13:37:23;11.73;;;3.08;;
24826;SDS011;12910;57.690;11.974;2022-08-03T13:39:48;10.95;;;3.40;;
24826;SDS011;12910;57.690;11.974;2022-08-03T13:42:14;5.03;;;3.45;;
24826;SDS011;12910;57.690;11.974;2022-08-03T13:44:39;8.02;;;3.75;;
24826;SDS011;12910;57.690;11.974;2022-08-03T13:47:05;3.92;;;2.75;;
24826;SDS011;12910;57.690;11.974;2022-08-03T13:49:30;5.55;;;3.00;;
24826;SDS011;12910;57.690;11.974;2022-08-03T13:51:56;5.07;;;2.83;;
24826;SDS011;12910;57.690;11.974;2022-08-03T13:54:21;6.18;;;3.50;;
24826;SDS011;12910;57.690;11.974;2022-08-03T13:56:47;3.83;;;2.45;;
24826;SDS011;12910;57.690;11.974;2022-08-03T13:59:23;4.50;;;3.45;;
24826;SDS011;12910;57.690;11.974;2022-08-03T14:01:49;10.10;;;2.70;;
24826;SDS011;12910;57.690;11.974;2022-08-03T14:04:16;3.03;;;2.10;;
24826;SDS011;12910;57.690;11.974;2022-08-03T14:06:42;5.70;;;2.55;;
24826;SDS011;12910;57.690;11.974;2022-08-03T14:09:09;5.35;;;2.85;;
24826;SDS011;12910;57.690;11.974;2022-08-03T14:11:38;8.57;;;2.38;;
24826;SDS011;12910;57.690;11.974;2022-08-03T14:14:04;6.22;;;2.78;;
24826;SDS011;12910;57.690;11.974;2022-08-03T14:16:30;4.35;;;2.78;;
24826;SDS011;12910;57.690;11.974;2022-08-03T14:18:55;2.78;;;2.17;;
24826;SDS011;12910;57.690;11.974;2022-08-03T14:21:21;5.47;;;2.70;;
24826;SDS011;12910;57.690;11.974;2022-08-03T14:23:46;7.60;;;2.33;;
24826;SDS011;12910;57.690;11.974;2022-08-03T14:26:12;2.80;;;2.42;;
24826;SDS011;12910;57.690;11.974;2022-08-03T14:28:38;11.80;;;3.13;;
24826;SDS011;12910;57.690;11.974;2022-08-03T14:31:04;3.83;;;2.08;;
24826;SDS011;12910;57.690;11.974;2022-08-03T14:33:30;3.10;;;2.10;;
24826;SDS011;12910;57.690;11.974;2022-08-03T14:35:56;4.38;;;2.03;;
24826;SDS011;12910;57.690;11.974;2022-08-03T14:38:22;4.55;;;1.80;;
24826;SDS011;12910;57.690;11.974;2022-08-03T14:40:47;4.25;;;1.75;;
24826;SDS011;12910;57.690;11.974;2022-08-03T14:43:14;7.88;;;2.30;;
24826;SDS011;12910;57.690;11.974;2022-08-03T14:45:41;7.97;;;1.90;;
24826;SDS011;12910;57.690;11.974;2022-08-03T14:48:07;6.05;;;2.35;;
24826;SDS011;12910;57.690;11.974;2022-08-03T14:50:33;4.15;;;2.75;;
24826;SDS011;12910;57.690;11.974;2022-08-03T14:52:58;6.03;;;2.00;;
24826;SDS011;12910;57.690;11.974;2022-08-03T14:55:24;3.92;;;2.22;;
24826;SDS011;12910;57.690;11.974;2022-08-03T14:57:49;4.20;;;1.92;;
24826;SDS011;12910;57.690;11.974;2022-08-03T15:00:14;6.28;;;2.58;;
24826;SDS011;12910;57.690;11.974;2022-08-03T15:02:40;2.65;;;1.60;;
24826;SDS011;12910;57.690;11.974;2022-08-03T15:05:05;6.68;;;2.50;;
24826;SDS011;12910;57.690;11.974;2022-08-03T15:07:31;5.53;;;2.20;;
24826;SDS011;12910;57.690;11.974;2022-08-03T15:09:56;3.65;;;2.30;;
24826;SDS011;12910;57.690;11.974;2022-08-03T15:12:23;6.35;;;2.22;;
24826;SDS011;12910;57.690;11.974;2022-08-03T15:14:49;3.83;;;1.67;;
24826;SDS011;12910;57.690;11.974;2022-08-03T15:17:14;7.03;;;1.90;;